OMAA/AUH METAR and TAF weather

Enter ICAO airport designator
Station Type Date Time Source
OMAA METAR 2020/01/23 09:00 UTC NOAA

OMAA 230900Z 17015KT 140V200 5000 DU FEW030 26/14 Q1016 TEMPO 3000


Station Type Date Time Source
OMAA Decoded METAR 2020/01/23 09:00 UTC NOAA

Abu Dhabi International Airport, United Arab Emirates (OMAA) 24-26N 054-39E 27M
Jan 23, 2020 - 04:00 AM EST / 2020.01.23 0900 UTC
Wind: from the S (170 degrees) at 17 MPH (15 KT) (direction variable):0
Visibility: 3 mile(s):0
Sky conditions: mostly clear
Weather: widespread dust
Temperature: 78 F (26 C)
Dew Point: 57 F (14 C)
Relative Humidity: 47%
Pressure (altimeter): 30.00 in. Hg (1016 hPa)
ob: OMAA 230900Z 17015KT 140V200 5000 DU FEW030 26/14 Q1016 TEMPO 3000
cycle: 9

Station Type Date Time Source
OMAA TAF 2020/01/23 06:06 UTC NOAA

TAF TAF OMAA 230500Z 2306/2412 18014KT 8000 NSC PROB40
TEMPO 2306/2312 18015G25KT 3000 BLDU
BECMG 2312/2314 30015KT PROB30
TEMPO 2312/2320 30015G25KT 4000 SHRA FEW040TCU

Example: see airport list